createdAt,value
2023-04-08T00:01:18.762Z,6.20
2023-04-08T00:03:46.340Z,6.45
2023-04-08T00:06:13.360Z,8.52
2023-04-08T00:08:40.314Z,7.38
2023-04-08T00:11:07.205Z,8.38
2023-04-08T00:13:34.096Z,6.43
2023-04-08T00:16:01.215Z,5.88
2023-04-08T00:18:28.291Z,5.82
2023-04-08T00:20:57.068Z,5.45
2023-04-08T00:23:23.992Z,5.38
2023-04-08T00:25:51.181Z,5.68
2023-04-08T00:28:18.111Z,6.35
2023-04-08T00:30:45.739Z,6.18
2023-04-08T00:33:12.797Z,6.28
2023-04-08T00:35:39.799Z,6.10
2023-04-08T00:38:08.084Z,6.30
2023-04-08T00:40:35.544Z,5.65
2023-04-08T00:43:02.723Z,5.85
2023-04-08T00:45:29.734Z,5.38
2023-04-08T00:47:57.111Z,6.78
2023-04-08T00:50:24.565Z,5.50
2023-04-08T00:52:51.507Z,5.60
2023-04-08T00:55:18.437Z,7.15
2023-04-08T00:57:46.658Z,6.45
2023-04-08T01:00:15.160Z,5.63
2023-04-08T01:03:17.447Z,5.40
2023-04-08T01:08:18.878Z,5.45
2023-04-08T01:10:52.154Z,5.55
2023-04-08T01:13:21.034Z,5.30
2023-04-08T01:15:50.622Z,6.22
2023-04-08T01:18:18.684Z,6.18
2023-04-08T01:20:46.809Z,6.88
2023-04-08T01:23:30.077Z,5.97
2023-04-08T01:25:58.380Z,5.53
2023-04-08T01:28:31.357Z,5.70
2023-04-08T01:31:01.681Z,4.75
2023-04-08T01:33:29.720Z,5.35
2023-04-08T01:35:59.107Z,6.25
2023-04-08T01:38:27.192Z,5.88
2023-04-08T01:40:55.779Z,5.65
2023-04-08T01:43:24.504Z,6.45
2023-04-08T01:45:54.496Z,6.55
2023-04-08T01:50:51.270Z,5.82
2023-04-08T01:53:18.562Z,5.65
2023-04-08T01:55:46.113Z,9.32
2023-04-08T01:58:20.577Z,5.57
2023-04-08T02:00:47.975Z,6.30
2023-04-08T02:03:19.502Z,6.28
2023-04-08T02:05:46.845Z,5.60
2023-04-08T02:08:13.748Z,5.68
2023-04-08T02:10:40.806Z,7.05
2023-04-08T02:13:08.328Z,7.93
2023-04-08T02:15:38.360Z,5.38
2023-04-08T02:20:51.438Z,6.05
2023-04-08T02:23:24.657Z,6.90
2023-04-08T02:25:54.429Z,6.47
2023-04-08T02:28:21.660Z,5.78
2023-04-08T02:30:52.753Z,7.40
2023-04-08T02:33:22.742Z,6.90
2023-04-08T02:35:54.701Z,5.90
2023-04-08T02:38:24.116Z,7.10
2023-04-08T02:40:51.398Z,6.85
2023-04-08T02:43:18.393Z,6.30
2023-04-08T02:45:45.959Z,6.93
2023-04-08T02:48:13.097Z,6.72
2023-04-08T02:50:41.131Z,6.43
2023-04-08T02:53:09.488Z,6.00
2023-04-08T02:55:39.535Z,5.75
2023-04-08T02:58:06.434Z,7.80
2023-04-08T03:00:33.387Z,9.43
2023-04-08T03:03:01.058Z,7.85
2023-04-08T03:05:28.071Z,16.02
2023-04-08T03:07:55.053Z,13.23
2023-04-08T03:10:21.953Z,12.38
2023-04-08T03:12:48.904Z,9.57
2023-04-08T03:15:15.944Z,9.35
2023-04-08T03:17:43.034Z,9.23
2023-04-08T03:20:11.045Z,12.40
2023-04-08T03:22:37.999Z,8.75
2023-04-08T03:25:05.363Z,8.15
2023-04-08T03:27:32.463Z,6.78
2023-04-08T03:29:59.403Z,6.93
2023-04-08T03:32:26.451Z,8.35
2023-04-08T03:34:53.583Z,9.48
2023-04-08T03:37:20.635Z,7.13
2023-04-08T03:39:47.542Z,8.43
2023-04-08T03:42:14.558Z,8.02
2023-04-08T03:44:43.853Z,8.82
2023-04-08T03:47:10.769Z,10.43
2023-04-08T03:49:37.652Z,7.68
2023-04-08T03:52:04.636Z,8.23
2023-04-08T03:54:31.541Z,8.57
2023-04-08T03:56:58.461Z,9.85
2023-04-08T03:59:25.808Z,11.85
2023-04-08T04:01:53.670Z,12.20
2023-04-08T04:04:21.275Z,11.68
2023-04-08T04:06:48.618Z,13.52
2023-04-08T04:09:16.725Z,13.30
2023-04-08T04:11:43.642Z,16.42
2023-04-08T04:14:10.583Z,16.70
2023-04-08T04:16:38.076Z,15.05
2023-04-08T04:19:05.117Z,10.35
2023-04-08T04:21:32.338Z,10.82
2023-04-08T04:23:59.237Z,12.52
2023-04-08T04:26:26.132Z,8.75
2023-04-08T04:28:53.250Z,9.30
2023-04-08T04:31:28.304Z,10.40
2023-04-08T04:33:55.595Z,9.70
2023-04-08T04:36:22.594Z,11.13
2023-04-08T04:38:51.098Z,9.50
2023-04-08T04:41:18.293Z,10.10
2023-04-08T04:43:45.723Z,11.40
2023-04-08T04:46:12.625Z,11.10
2023-04-08T04:48:39.603Z,12.90
2023-04-08T04:51:07.524Z,13.88
2023-04-08T04:53:34.580Z,13.05
2023-04-08T04:56:01.888Z,11.43
2023-04-08T04:58:29.675Z,11.95
2023-04-08T05:00:56.961Z,13.18
2023-04-08T05:03:24.107Z,10.65
2023-04-08T05:05:53.004Z,12.52
2023-04-08T05:08:21.160Z,14.77
2023-04-08T05:10:50.178Z,12.80
2023-04-08T05:13:18.259Z,14.13
2023-04-08T05:15:47.834Z,14.27
2023-04-08T05:18:15.022Z,14.43
2023-04-08T05:20:42.096Z,14.45
2023-04-08T05:23:09.142Z,13.05
2023-04-08T05:25:36.355Z,13.68
2023-04-08T05:28:03.925Z,14.20
2023-04-08T05:30:30.983Z,11.75
2023-04-08T05:33:00.033Z,13.43
2023-04-08T05:35:28.431Z,19.35
2023-04-08T05:37:55.400Z,18.65
2023-04-08T05:40:22.376Z,18.40
2023-04-08T05:42:49.326Z,19.63
2023-04-08T05:45:16.362Z,20.80
2023-04-08T05:47:43.363Z,16.92
2023-04-08T05:50:11.397Z,20.63
2023-04-08T05:52:45.032Z,22.00
2023-04-08T05:55:13.420Z,18.40
2023-04-08T05:57:41.127Z,17.70
2023-04-08T06:00:10.689Z,19.40
2023-04-08T06:02:38.348Z,15.20
2023-04-08T06:05:06.582Z,16.95
2023-04-08T06:07:34.087Z,18.13
2023-04-08T06:10:01.041Z,20.95
2023-04-08T06:12:27.978Z,19.52
2023-04-08T06:14:56.251Z,16.58
2023-04-08T06:17:23.277Z,20.08
2023-04-08T06:19:50.384Z,15.07
2023-04-08T06:22:17.285Z,21.10
2023-04-08T06:24:44.225Z,18.30
2023-04-08T06:27:11.193Z,18.40
2023-04-08T06:29:38.085Z,16.10
2023-04-08T06:32:06.197Z,15.73
2023-04-08T06:34:33.270Z,16.52
2023-04-08T06:37:00.305Z,17.98
2023-04-08T06:39:27.241Z,18.25
2023-04-08T06:41:54.725Z,17.27
2023-04-08T06:44:44.002Z,17.42
2023-04-08T06:47:11.020Z,15.45
2023-04-08T06:49:38.031Z,18.38
2023-04-08T06:52:08.249Z,21.50
2023-04-08T06:54:35.171Z,21.70
2023-04-08T06:57:12.372Z,20.20
2023-04-08T06:59:39.506Z,22.30
2023-04-08T07:02:06.714Z,22.55
2023-04-08T07:04:33.721Z,21.08
2023-04-08T07:07:00.771Z,20.92
2023-04-08T07:09:28.326Z,21.58
2023-04-08T07:11:55.796Z,20.95
2023-04-08T07:14:22.747Z,20.33
2023-04-08T07:16:49.674Z,26.92
2023-04-08T07:19:16.595Z,19.73
2023-04-08T07:21:43.644Z,19.77
2023-04-08T07:24:10.617Z,20.13
2023-04-08T07:26:38.749Z,19.38
2023-04-08T07:29:05.697Z,18.20
2023-04-08T07:31:35.752Z,17.42
2023-04-08T07:36:29.505Z,18.23
2023-04-08T07:38:56.384Z,18.88
2023-04-08T07:41:23.273Z,21.80
2023-04-08T07:43:50.363Z,16.67
2023-04-08T07:46:17.289Z,21.33
2023-04-08T07:48:44.215Z,22.52
2023-04-08T07:51:11.745Z,17.98
2023-04-08T07:53:40.449Z,16.60
2023-04-08T07:56:16.221Z,16.63
2023-04-08T07:58:43.725Z,19.63
2023-04-08T08:01:24.462Z,18.15
2023-04-08T08:03:53.408Z,17.88
2023-04-08T08:06:22.137Z,15.40
2023-04-08T08:08:49.131Z,17.95
2023-04-08T08:11:16.208Z,16.67
2023-04-08T08:13:43.287Z,19.48
2023-04-08T08:16:11.705Z,18.35
2023-04-08T08:18:40.563Z,16.75
2023-04-08T08:21:08.123Z,16.80
2023-04-08T08:23:35.114Z,16.08
2023-04-08T08:26:04.118Z,14.65
2023-04-08T08:28:31.161Z,14.05
2023-04-08T08:30:58.759Z,17.17
2023-04-08T08:33:26.219Z,16.45
2023-04-08T08:35:57.950Z,16.65
2023-04-08T08:38:25.359Z,15.40
2023-04-08T08:41:00.248Z,22.52
2023-04-08T08:43:29.111Z,15.73
2023-04-08T08:45:56.409Z,22.35
2023-04-08T08:48:23.514Z,17.95
2023-04-08T08:50:50.717Z,22.63
2023-04-08T08:53:17.745Z,17.98
2023-04-08T08:56:13.760Z,18.63
2023-04-08T08:58:31.982Z,19.70
2023-04-08T09:00:58.920Z,19.27
2023-04-08T09:03:28.515Z,20.25
2023-04-08T09:08:43.384Z,20.52
2023-04-08T09:11:14.388Z,22.42
2023-04-08T09:13:41.916Z,21.42
2023-04-08T09:16:15.041Z,22.63
2023-04-08T09:18:45.976Z,37.38
2023-04-08T09:21:15.021Z,21.55
2023-04-08T09:23:48.033Z,22.92
2023-04-08T09:26:24.280Z,27.70
2023-04-08T09:29:24.176Z,27.05
2023-04-08T09:32:01.235Z,25.65
2023-04-08T09:34:29.861Z,23.50
2023-04-08T09:36:56.910Z,27.80
2023-04-08T09:39:24.111Z,22.23
2023-04-08T09:41:52.609Z,25.33
2023-04-08T09:44:21.960Z,24.33
2023-04-08T09:47:09.106Z,26.63
2023-04-08T09:49:46.823Z,24.40
2023-04-08T09:52:46.002Z,23.65
2023-04-08T09:55:22.232Z,22.40
2023-04-08T09:58:02.321Z,19.67
2023-04-08T10:00:44.105Z,22.42
2023-04-08T10:03:28.321Z,23.33
2023-04-08T10:05:59.792Z,18.90
2023-04-08T10:08:27.725Z,21.05
2023-04-08T10:10:56.340Z,19.80
2023-04-08T10:13:24.375Z,18.90
2023-04-08T10:15:51.297Z,24.63
2023-04-08T10:18:22.140Z,20.13
2023-04-08T10:20:49.396Z,24.90
2023-04-08T10:23:21.092Z,22.00
2023-04-08T10:25:49.335Z,21.23
2023-04-08T10:28:18.764Z,25.25
2023-04-08T10:30:56.176Z,19.38
2023-04-08T10:33:40.077Z,20.23
2023-04-08T10:36:09.771Z,24.25
2023-04-08T10:38:37.114Z,21.73
2023-04-08T10:41:04.285Z,27.08
2023-04-08T10:43:35.187Z,23.48
2023-04-08T10:46:03.007Z,23.95
2023-04-08T10:48:29.975Z,23.48
2023-04-08T10:51:04.783Z,20.73
2023-04-08T10:53:36.980Z,20.90
2023-04-08T10:56:15.464Z,29.92
2023-04-08T10:58:56.314Z,22.88
2023-04-08T11:01:23.687Z,25.52
2023-04-08T11:03:51.379Z,25.48
2023-04-08T11:06:19.478Z,24.38
2023-04-08T11:08:47.263Z,23.35
2023-04-08T11:11:15.491Z,19.20
2023-04-08T11:13:52.730Z,23.05
2023-04-08T11:16:22.687Z,21.38
2023-04-08T11:18:51.374Z,19.88
2023-04-08T11:21:18.462Z,20.50
2023-04-08T11:23:45.552Z,22.05
2023-04-08T11:26:13.795Z,20.13
2023-04-08T11:28:40.761Z,21.63
2023-04-08T11:31:09.114Z,18.80
2023-04-08T11:33:36.367Z,23.13
2023-04-08T11:36:08.524Z,23.85
2023-04-08T11:38:41.510Z,22.55
2023-04-08T11:41:09.425Z,20.50
2023-04-08T11:43:36.693Z,23.25
2023-04-08T11:46:13.090Z,21.70
2023-04-08T11:48:40.100Z,22.08
2023-04-08T11:51:12.518Z,20.45
2023-04-08T11:53:39.522Z,26.55
2023-04-08T11:56:20.368Z,17.80
2023-04-08T11:58:47.752Z,23.25
2023-04-08T12:01:14.907Z,27.60
2023-04-08T12:04:00.509Z,21.77
2023-04-08T12:06:28.911Z,24.05
2023-04-08T12:08:57.466Z,24.25
2023-04-08T12:11:24.727Z,22.40
2023-04-08T12:13:52.621Z,25.60
2023-04-08T12:16:20.635Z,23.13
2023-04-08T12:18:47.894Z,23.00
2023-04-08T12:21:14.868Z,20.48
2023-04-08T12:23:41.841Z,20.17
2023-04-08T12:26:08.880Z,22.33
2023-04-08T12:28:36.332Z,23.70
2023-04-08T12:31:03.821Z,21.67
2023-04-08T12:33:31.811Z,20.95
2023-04-08T12:35:59.354Z,18.83
2023-04-08T12:38:27.075Z,20.92
2023-04-08T12:40:55.000Z,18.80
2023-04-08T12:43:23.665Z,20.02
2023-04-08T12:45:51.739Z,18.35
2023-04-08T12:48:18.903Z,19.98
2023-04-08T12:50:46.059Z,23.08
2023-04-08T12:53:13.078Z,18.38
2023-04-08T12:55:40.170Z,17.90
2023-04-08T12:58:07.311Z,20.75
2023-04-08T13:00:34.369Z,19.45
2023-04-08T13:03:01.873Z,19.55
2023-04-08T13:05:40.171Z,19.33
2023-04-08T13:08:09.430Z,19.63
2023-04-08T13:10:36.407Z,20.65
2023-04-08T13:13:03.697Z,17.48
2023-04-08T13:15:30.857Z,16.42
2023-04-08T13:17:57.770Z,22.20
2023-04-08T13:20:26.239Z,16.98
2023-04-08T13:22:53.725Z,18.48
2023-04-08T13:25:21.118Z,19.45
2023-04-08T13:27:48.183Z,25.17
2023-04-08T13:30:15.519Z,21.50
2023-04-08T13:32:42.554Z,21.15
2023-04-08T13:35:09.784Z,16.02
2023-04-08T13:37:36.984Z,16.67
2023-04-08T13:40:05.215Z,14.75
2023-04-08T13:42:32.849Z,19.52
2023-04-08T13:45:00.184Z,23.17
2023-04-08T13:47:28.954Z,20.45
2023-04-08T13:49:55.885Z,17.00
2023-04-08T13:52:22.823Z,20.92
2023-04-08T13:54:49.772Z,18.75
2023-04-08T13:57:16.706Z,20.45
2023-04-08T13:59:44.837Z,21.27
2023-04-08T14:02:12.761Z,21.55
2023-04-08T14:04:40.001Z,18.77
2023-04-08T14:07:07.192Z,21.20
2023-04-08T14:09:34.118Z,22.13
2023-04-08T14:12:01.073Z,21.05
2023-04-08T14:14:28.034Z,20.65
2023-04-08T14:16:55.236Z,21.83
2023-04-08T14:19:22.243Z,20.58
2023-04-08T14:21:49.289Z,22.52
2023-04-08T14:24:16.462Z,17.98
2023-04-08T14:26:43.494Z,19.85
2023-04-08T14:29:10.538Z,23.35
2023-04-08T14:31:37.459Z,20.85
2023-04-08T14:34:04.985Z,21.70
2023-04-08T14:36:32.869Z,20.55
2023-04-08T14:39:00.218Z,17.20
2023-04-08T14:41:27.339Z,19.92
2023-04-08T14:43:54.375Z,20.17
2023-04-08T14:46:21.832Z,18.95
2023-04-08T14:48:49.300Z,22.30
2023-04-08T14:51:16.435Z,22.38
2023-04-08T14:53:43.389Z,19.00
2023-04-08T14:56:10.594Z,18.40
2023-04-08T14:58:40.409Z,23.60
2023-04-08T15:01:07.991Z,20.67
2023-04-08T15:03:35.122Z,23.95
2023-04-08T15:06:02.646Z,22.17
2023-04-08T15:08:29.554Z,20.00
2023-04-08T15:10:57.050Z,22.08
2023-04-08T15:13:24.051Z,21.02
2023-04-08T15:15:51.708Z,20.45
2023-04-08T15:18:18.741Z,19.85
2023-04-08T15:20:46.036Z,17.27
2023-04-08T15:23:13.135Z,18.85
2023-04-08T15:25:40.061Z,23.20
2023-04-08T15:28:07.075Z,17.73
2023-04-08T15:30:35.575Z,22.25
2023-04-08T15:33:05.871Z,23.58
2023-04-08T15:35:33.502Z,18.40
2023-04-08T15:38:00.823Z,18.40
2023-04-08T15:40:28.094Z,24.30
2023-04-08T15:42:56.041Z,21.13
2023-04-08T15:45:23.064Z,22.98
2023-04-08T15:47:50.029Z,24.27
2023-04-08T15:50:17.591Z,24.40
2023-04-08T15:52:44.947Z,21.13
2023-04-08T15:55:12.014Z,21.92
2023-04-08T15:57:39.116Z,27.15
2023-04-08T16:00:13.882Z,28.80
2023-04-08T16:02:42.244Z,20.48
2023-04-08T16:05:09.618Z,22.65
2023-04-08T16:07:37.378Z,27.70
2023-04-08T16:10:04.742Z,29.90
2023-04-08T16:12:32.709Z,27.40
2023-04-08T16:15:00.056Z,32.13
2023-04-08T16:17:28.075Z,30.73
2023-04-08T16:19:55.144Z,27.90
2023-04-08T16:22:22.119Z,26.75
2023-04-08T16:24:55.294Z,30.73
2023-04-08T16:27:22.882Z,22.92
2023-04-08T16:29:50.140Z,28.35
2023-04-08T16:32:17.047Z,33.78
2023-04-08T16:34:44.656Z,34.03
2023-04-08T16:37:13.209Z,39.80
2023-04-08T16:39:41.899Z,24.58
2023-04-08T16:42:08.961Z,25.20
2023-04-08T16:44:35.999Z,35.20
2023-04-08T16:47:02.926Z,24.00
2023-04-08T16:49:30.480Z,26.58
2023-04-08T16:51:57.463Z,31.35
2023-04-08T16:54:24.363Z,30.20
2023-04-08T16:56:51.346Z,106.40
2023-04-08T16:59:18.223Z,109.22
2023-04-08T17:01:45.208Z,133.05
2023-04-08T17:04:12.141Z,76.82
2023-04-08T17:06:41.430Z,123.20
2023-04-08T17:09:09.117Z,72.88
2023-04-08T17:11:36.060Z,99.05
2023-04-08T17:14:03.570Z,61.05
2023-04-08T17:16:31.145Z,94.75
2023-04-08T17:18:58.206Z,63.83
2023-04-08T17:21:26.094Z,52.30
2023-04-08T17:23:53.250Z,158.70
2023-04-08T17:26:22.232Z,79.32
2023-04-08T17:28:49.822Z,40.90
2023-04-08T17:31:16.829Z,80.00
2023-04-08T17:33:43.836Z,73.22
2023-04-08T17:36:11.870Z,106.72
2023-04-08T17:38:40.099Z,90.93
2023-04-08T17:41:08.103Z,49.25
2023-04-08T17:43:35.119Z,60.83
2023-04-08T17:46:02.177Z,36.17
2023-04-08T17:48:29.261Z,35.30
2023-04-08T17:51:04.844Z,26.20
2023-04-08T17:53:33.454Z,27.80
2023-04-08T17:56:01.241Z,24.90
2023-04-08T17:58:28.267Z,27.27
2023-04-08T18:00:55.308Z,25.63
2023-04-08T18:03:22.837Z,24.65
2023-04-08T18:05:50.364Z,22.48
2023-04-08T18:08:17.313Z,23.73
2023-04-08T18:10:45.220Z,24.73
2023-04-08T18:13:15.324Z,26.30
2023-04-08T18:15:43.268Z,27.75
2023-04-08T18:18:10.314Z,26.58
2023-04-08T18:20:37.654Z,27.17
2023-04-08T18:23:04.952Z,28.50
2023-04-08T18:25:32.594Z,26.02
2023-04-08T18:27:59.699Z,29.55
2023-04-08T18:30:26.899Z,29.95
2023-04-08T18:32:53.935Z,31.13
2023-04-08T18:35:21.183Z,28.48
2023-04-08T18:37:48.283Z,31.73
2023-04-08T18:40:15.486Z,30.95
2023-04-08T18:42:42.465Z,35.78
2023-04-08T18:45:09.947Z,35.15
2023-04-08T18:47:37.849Z,34.45
2023-04-08T18:50:06.474Z,35.50
2023-04-08T18:52:33.445Z,37.65
2023-04-08T18:55:01.213Z,35.00
2023-04-08T18:57:28.446Z,38.28
2023-04-08T18:59:55.460Z,36.83
2023-04-08T19:02:22.853Z,38.75
2023-04-08T19:04:49.970Z,36.80
2023-04-08T19:07:17.770Z,37.55
2023-04-08T19:09:44.807Z,36.70
2023-04-08T19:12:11.750Z,35.50
2023-04-08T19:14:39.498Z,37.28
2023-04-08T19:17:06.663Z,61.75
2023-04-08T19:19:33.554Z,138.93
2023-04-08T19:22:02.732Z,51.38
2023-04-08T19:24:29.644Z,42.22
2023-04-08T19:26:56.611Z,44.70
2023-04-08T19:29:24.377Z,37.88
2023-04-08T19:31:51.261Z,34.58
2023-04-08T19:34:18.185Z,35.55
2023-04-08T19:36:45.508Z,29.77
2023-04-08T19:39:12.456Z,31.15
2023-04-08T19:41:39.395Z,26.02
2023-04-08T19:44:06.698Z,26.75
2023-04-08T19:46:33.913Z,27.88
2023-04-08T19:49:00.919Z,50.35
2023-04-08T19:51:29.173Z,28.30
2023-04-08T19:53:56.330Z,34.10
2023-04-08T19:56:23.344Z,34.63
2023-04-08T19:58:50.445Z,46.53
2023-04-08T20:01:18.160Z,38.20
2023-04-08T20:03:50.258Z,27.70
2023-04-08T20:06:17.965Z,29.70
2023-04-08T20:08:45.692Z,29.48
2023-04-08T20:11:13.060Z,32.53
2023-04-08T20:13:40.093Z,24.75
2023-04-08T20:16:07.535Z,33.60
2023-04-08T20:18:34.719Z,32.45
2023-04-08T20:21:01.668Z,35.95
2023-04-08T20:23:28.646Z,33.92
2023-04-08T20:25:56.572Z,35.90
2023-04-08T20:28:23.719Z,33.58
2023-04-08T20:30:51.634Z,155.05
2023-04-08T20:33:19.158Z,39.88
2023-04-08T20:35:46.782Z,34.50
2023-04-08T20:38:14.610Z,34.95
2023-04-08T20:40:45.144Z,35.28
2023-04-08T20:43:12.443Z,35.40
2023-04-08T20:45:39.412Z,33.00
2023-04-08T20:48:07.453Z,33.65
2023-04-08T20:50:34.757Z,27.88
2023-04-08T20:53:01.768Z,27.98
2023-04-08T20:55:28.842Z,27.80
2023-04-08T20:57:55.804Z,28.13
2023-04-08T21:00:22.761Z,28.80
2023-04-08T21:02:50.812Z,29.30
2023-04-08T21:05:17.969Z,28.20
2023-04-08T21:07:45.017Z,30.05
2023-04-08T21:10:14.096Z,24.98
2023-04-08T21:12:41.148Z,28.77
2023-04-08T21:15:08.850Z,30.00
2023-04-08T21:17:35.906Z,29.60
2023-04-08T21:20:04.356Z,27.30
2023-04-08T21:22:32.211Z,27.38
2023-04-08T21:24:59.163Z,25.38
2023-04-08T21:27:26.159Z,28.08
2023-04-08T21:29:53.340Z,30.52
2023-04-08T21:32:20.426Z,27.85
2023-04-08T21:34:47.568Z,30.20
2023-04-08T21:37:14.508Z,29.92
2023-04-08T21:39:41.458Z,27.25
2023-04-08T21:42:08.333Z,27.00
2023-04-08T21:44:35.293Z,26.88
2023-04-08T21:47:02.364Z,26.67
2023-04-08T21:49:32.352Z,130.60
2023-04-08T21:51:59.301Z,34.45
2023-04-08T21:54:26.268Z,29.58
2023-04-08T21:56:53.268Z,31.17
2023-04-08T21:59:20.529Z,33.95
2023-04-08T22:01:47.700Z,36.03
2023-04-08T22:04:14.871Z,32.92
2023-04-08T22:06:42.238Z,31.80
2023-04-08T22:09:09.129Z,38.17
2023-04-08T22:11:36.058Z,34.85
2023-04-08T22:14:02.947Z,36.47
2023-04-08T22:16:29.915Z,38.72
2023-04-08T22:18:57.113Z,38.25
2023-04-08T22:21:24.897Z,34.80
2023-04-08T22:23:54.727Z,36.92
2023-04-08T22:26:21.835Z,37.08
2023-04-08T22:28:48.798Z,33.08
2023-04-08T22:31:16.849Z,34.88
2023-04-08T22:33:43.871Z,38.08
2023-04-08T22:36:10.811Z,40.55
2023-04-08T22:38:37.885Z,74.03
2023-04-08T22:41:04.946Z,45.05
2023-04-08T22:43:31.922Z,38.72
2023-04-08T22:45:59.000Z,42.65
2023-04-08T22:48:25.906Z,40.67
2023-04-08T22:50:52.901Z,38.45
2023-04-08T22:53:20.046Z,39.95
2023-04-08T22:55:46.982Z,39.78
2023-04-08T22:58:13.909Z,36.40
2023-04-08T23:00:41.439Z,39.47
2023-04-08T23:03:08.527Z,39.08
2023-04-08T23:05:35.554Z,40.63
2023-04-08T23:08:02.721Z,33.70
2023-04-08T23:10:29.677Z,36.28
2023-04-08T23:12:56.604Z,32.10
2023-04-08T23:15:23.797Z,37.53
2023-04-08T23:17:50.835Z,41.85
2023-04-08T23:20:17.882Z,39.33
2023-04-08T23:22:44.911Z,33.13
2023-04-08T23:25:12.033Z,30.40
2023-04-08T23:27:39.105Z,34.85
2023-04-08T23:30:06.907Z,37.30
2023-04-08T23:32:35.415Z,30.73
2023-04-08T23:35:03.453Z,29.42
2023-04-08T23:37:32.962Z,35.17
2023-04-08T23:39:59.975Z,33.80
2023-04-08T23:42:27.293Z,31.13
2023-04-08T23:44:55.276Z,31.63
2023-04-08T23:47:22.478Z,34.85
2023-04-08T23:49:52.350Z,28.90
2023-04-08T23:52:22.204Z,34.22
2023-04-08T23:54:52.597Z,32.05
2023-04-08T23:57:20.606Z,30.17
2023-04-08T23:59:47.836Z,33.22
